createdAt,value
2023-05-14T00:02:46.860Z,11.60
2023-05-14T00:06:58.448Z,11.57
2023-05-14T00:11:04.385Z,11.54
2023-05-14T00:15:08.085Z,11.50
2023-05-14T00:19:17.449Z,11.46
2023-05-14T00:23:25.227Z,11.41
2023-05-14T00:27:30.220Z,11.38
2023-05-14T00:31:38.995Z,11.32
2023-05-14T00:35:51.356Z,11.27
2023-05-14T00:40:03.475Z,11.23
2023-05-14T00:44:09.560Z,11.22
2023-05-14T00:48:23.131Z,11.18
2023-05-14T00:52:26.668Z,11.15
2023-05-14T00:56:42.510Z,11.14
2023-05-14T01:00:46.797Z,11.12
2023-05-14T01:04:52.838Z,11.14
2023-05-14T01:09:15.211Z,11.13
2023-05-14T01:13:44.181Z,11.08
2023-05-14T01:18:05.877Z,11.05
2023-05-14T01:22:16.613Z,11.05
2023-05-14T01:26:23.570Z,11.01
2023-05-14T01:30:34.981Z,11.00
2023-05-14T01:34:42.782Z,10.96
2023-05-14T01:38:50.006Z,10.92
2023-05-14T01:43:05.256Z,10.87
2023-05-14T01:47:12.774Z,10.84
2023-05-14T01:51:18.794Z,10.79
2023-05-14T01:55:25.323Z,10.77
2023-05-14T01:59:30.601Z,10.77
2023-05-14T02:03:38.975Z,10.75
2023-05-14T02:07:49.855Z,10.71
2023-05-14T02:12:03.080Z,10.71
2023-05-14T02:16:13.204Z,10.68
2023-05-14T02:20:19.936Z,10.68
2023-05-14T02:24:31.708Z,10.66
2023-05-14T02:28:42.430Z,10.64
2023-05-14T02:32:48.411Z,10.62
2023-05-14T02:36:59.966Z,10.60
2023-05-14T02:41:11.194Z,10.58
2023-05-14T02:45:21.245Z,10.62
2023-05-14T02:49:45.339Z,10.63
2023-05-14T02:53:54.819Z,10.59
2023-05-14T02:58:09.765Z,10.54
2023-05-14T03:02:27.979Z,10.47
2023-05-14T03:06:41.245Z,10.41
2023-05-14T03:10:54.587Z,10.35
2023-05-14T03:15:04.744Z,10.28
2023-05-14T03:19:13.687Z,10.23
2023-05-14T03:23:29.598Z,10.20
2023-05-14T03:27:37.729Z,10.17
2023-05-14T03:31:45.119Z,10.13
2023-05-14T03:35:53.172Z,10.10
2023-05-14T03:40:06.377Z,10.08
2023-05-14T03:44:25.943Z,10.03
2023-05-14T03:48:32.877Z,10.00
2023-05-14T03:52:49.772Z,9.99
2023-05-14T03:57:00.162Z,9.96
2023-05-14T04:01:10.187Z,9.94
2023-05-14T04:05:27.557Z,9.93
2023-05-14T04:09:41.766Z,9.92
2023-05-14T04:14:02.512Z,9.94
2023-05-14T04:18:14.955Z,9.97
2023-05-14T04:22:22.630Z,9.96
2023-05-14T04:26:28.021Z,9.96
2023-05-14T04:30:32.021Z,9.99
2023-05-14T04:34:41.429Z,10.01
2023-05-14T04:38:47.419Z,10.02
2023-05-14T04:42:54.632Z,10.04
2023-05-14T04:47:07.080Z,10.07
2023-05-14T04:51:18.747Z,10.10
2023-05-14T04:55:26.346Z,10.13
2023-05-14T04:59:39.134Z,10.18
2023-05-14T05:03:58.508Z,10.22
2023-05-14T05:08:07.808Z,10.31
2023-05-14T05:12:11.925Z,10.38
2023-05-14T05:16:18.888Z,10.57
2023-05-14T05:20:34.750Z,10.94
2023-05-14T05:24:50.243Z,11.35
2023-05-14T05:28:56.483Z,11.67
2023-05-14T05:33:05.768Z,11.97
2023-05-14T05:37:21.784Z,12.20
2023-05-14T05:41:32.868Z,12.45
2023-05-14T05:45:43.017Z,12.70
2023-05-14T05:49:47.395Z,12.92
2023-05-14T05:53:56.298Z,13.02
2023-05-14T05:58:08.736Z,13.16
2023-05-14T06:02:20.618Z,13.36
2023-05-14T06:06:33.822Z,13.55
2023-05-14T06:10:47.524Z,13.87
2023-05-14T06:14:56.344Z,14.22
2023-05-14T06:19:06.007Z,14.30
2023-05-14T06:23:14.785Z,14.30
2023-05-14T06:27:40.897Z,14.20
2023-05-14T06:31:47.964Z,13.99
2023-05-14T06:35:56.474Z,13.91
2023-05-14T06:40:09.072Z,13.94
2023-05-14T06:44:20.284Z,13.97
2023-05-14T06:48:33.770Z,14.03
2023-05-14T06:52:45.804Z,14.00
2023-05-14T06:57:01.398Z,14.07
2023-05-14T07:01:31.066Z,14.12
2023-05-14T07:05:44.364Z,14.20
2023-05-14T07:09:55.677Z,14.36
2023-05-14T07:14:02.472Z,14.53
2023-05-14T07:18:06.126Z,14.70
2023-05-14T07:22:15.203Z,14.91
2023-05-14T07:26:25.674Z,15.13
2023-05-14T07:30:41.388Z,15.28
2023-05-14T07:34:48.186Z,15.35
2023-05-14T07:38:52.601Z,15.41
2023-05-14T07:43:01.769Z,15.50
2023-05-14T07:47:13.675Z,15.70
2023-05-14T07:51:20.420Z,15.63
2023-05-14T07:55:25.893Z,15.69
2023-05-14T07:59:35.682Z,15.90
2023-05-14T08:03:41.012Z,16.15
2023-05-14T08:07:48.552Z,16.32
2023-05-14T08:11:51.753Z,16.46
2023-05-14T08:15:54.055Z,16.71
2023-05-14T08:20:00.743Z,16.71
2023-05-14T08:24:09.794Z,16.72
2023-05-14T08:28:14.572Z,17.01
2023-05-14T08:32:23.749Z,17.28
2023-05-14T08:36:28.792Z,17.45
2023-05-14T08:40:31.110Z,17.66
2023-05-14T08:44:48.821Z,17.75
2023-05-14T08:48:58.922Z,18.04
2023-05-14T08:53:09.606Z,18.29
2023-05-14T08:57:13.371Z,18.45
2023-05-14T09:01:19.610Z,18.32
2023-05-14T09:05:25.870Z,18.32
2023-05-14T09:09:32.386Z,18.33
2023-05-14T09:13:40.203Z,18.36
2023-05-14T09:17:48.942Z,18.46
2023-05-14T09:22:02.229Z,18.78
2023-05-14T09:26:06.635Z,19.37
2023-05-14T09:30:15.475Z,19.86
2023-05-14T09:34:30.817Z,19.64
2023-05-14T09:38:41.910Z,19.63
2023-05-14T09:42:51.394Z,19.49
2023-05-14T09:46:55.376Z,19.34
2023-05-14T09:51:01.437Z,19.42
2023-05-14T09:55:10.350Z,19.56
2023-05-14T09:59:19.573Z,19.62
2023-05-14T10:03:26.108Z,19.32
2023-05-14T10:07:51.330Z,19.39
2023-05-14T10:12:00.426Z,19.27
2023-05-14T10:16:23.616Z,19.35
2023-05-14T10:20:31.757Z,19.30
2023-05-14T10:24:45.606Z,19.15
2023-05-14T10:28:51.625Z,19.10
2023-05-14T10:33:21.714Z,19.40
2023-05-14T10:37:27.601Z,19.48
2023-05-14T10:41:35.421Z,19.60
2023-05-14T10:45:42.880Z,19.48
2023-05-14T10:49:50.640Z,19.46
2023-05-14T10:54:05.179Z,19.30
2023-05-14T10:58:16.777Z,19.28
2023-05-14T11:02:32.012Z,19.24
2023-05-14T11:06:40.228Z,19.06
2023-05-14T11:10:52.446Z,18.86
2023-05-14T11:15:06.315Z,18.82
2023-05-14T11:19:34.524Z,18.88
2023-05-14T11:23:46.973Z,19.13
2023-05-14T11:28:00.050Z,19.55
2023-05-14T11:32:09.173Z,19.71
2023-05-14T11:36:15.612Z,19.80
2023-05-14T11:40:25.814Z,20.13
2023-05-14T11:44:33.816Z,20.46
2023-05-14T11:48:40.793Z,20.89
2023-05-14T11:52:49.575Z,21.36
2023-05-14T11:56:52.985Z,21.54
2023-05-14T12:01:03.674Z,21.84
2023-05-14T12:05:13.926Z,22.10
2023-05-14T12:09:24.061Z,22.60
2023-05-14T12:13:32.731Z,22.82
2023-05-14T12:17:35.902Z,22.83
2023-05-14T12:21:44.875Z,22.85
2023-05-14T12:26:10.486Z,22.96
2023-05-14T12:30:22.815Z,23.21
2023-05-14T12:34:37.216Z,23.12
2023-05-14T12:38:45.383Z,22.84
2023-05-14T12:42:57.097Z,22.65
2023-05-14T12:47:04.313Z,22.93
2023-05-14T12:51:08.220Z,23.00
2023-05-14T12:55:17.831Z,23.22
2023-05-14T12:59:29.320Z,23.23
2023-05-14T13:03:37.730Z,23.61
2023-05-14T13:07:44.709Z,23.96
2023-05-14T13:11:52.051Z,23.88
2023-05-14T13:15:59.251Z,23.56
2023-05-14T13:20:09.482Z,23.65
2023-05-14T13:24:16.614Z,24.14
2023-05-14T13:28:23.193Z,24.47
2023-05-14T13:32:32.504Z,24.21
2023-05-14T13:36:53.045Z,23.88
2023-05-14T13:40:58.146Z,24.48
2023-05-14T13:45:04.971Z,26.57
2023-05-14T13:49:09.932Z,28.37
2023-05-14T13:53:37.866Z,29.05
2023-05-14T13:57:44.497Z,29.85
2023-05-14T14:01:53.943Z,30.68
2023-05-14T14:05:57.368Z,31.48
2023-05-14T14:10:04.494Z,31.75
2023-05-14T14:14:16.805Z,32.85
2023-05-14T14:18:47.047Z,32.79
2023-05-14T14:22:53.742Z,31.98
2023-05-14T14:27:03.503Z,31.99
2023-05-14T14:31:09.994Z,30.81
2023-05-14T14:35:16.168Z,31.12
2023-05-14T14:39:22.350Z,32.10
2023-05-14T14:43:28.616Z,32.97
2023-05-14T14:47:35.393Z,30.79
2023-05-14T14:51:43.715Z,28.83
2023-05-14T14:55:50.653Z,27.01
2023-05-14T15:00:02.539Z,26.22
2023-05-14T15:04:12.380Z,26.02
2023-05-14T15:08:19.898Z,25.14
2023-05-14T15:12:23.809Z,24.56
2023-05-14T15:16:30.204Z,23.57
2023-05-14T15:20:36.860Z,23.01
2023-05-14T15:24:45.924Z,22.64
2023-05-14T15:28:52.300Z,22.59
2023-05-14T15:32:59.904Z,22.64
2023-05-14T15:37:04.644Z,22.70
2023-05-14T15:41:14.796Z,22.62
2023-05-14T15:45:25.661Z,22.48
2023-05-14T15:49:32.874Z,21.90
2023-05-14T15:53:38.579Z,21.90
2023-05-14T15:57:49.985Z,21.94
2023-05-14T16:01:57.636Z,21.83
2023-05-14T16:06:01.725Z,21.61
2023-05-14T16:10:12.937Z,21.31
2023-05-14T16:14:20.130Z,21.04
2023-05-14T16:18:35.649Z,20.83
2023-05-14T16:22:39.293Z,20.81
2023-05-14T16:27:01.599Z,20.76
2023-05-14T16:31:09.112Z,20.73
2023-05-14T16:35:21.115Z,20.59
2023-05-14T16:39:25.030Z,20.59
2023-05-14T16:43:29.568Z,20.79
2023-05-14T16:47:38.173Z,20.82
2023-05-14T16:51:45.569Z,20.67
2023-05-14T16:55:50.170Z,20.53
2023-05-14T16:59:58.751Z,20.56
2023-05-14T17:04:04.545Z,20.52
2023-05-14T17:08:12.513Z,20.36
2023-05-14T17:12:16.077Z,20.22
2023-05-14T17:16:24.314Z,20.29
2023-05-14T17:20:30.343Z,20.38
2023-05-14T17:24:40.571Z,20.65
2023-05-14T17:28:46.924Z,20.49
2023-05-14T17:32:51.720Z,20.20
2023-05-14T17:37:03.040Z,19.96
2023-05-14T17:41:13.120Z,19.55
2023-05-14T17:45:24.081Z,19.28
2023-05-14T17:49:35.859Z,18.94
2023-05-14T17:53:43.944Z,18.62
2023-05-14T17:57:54.790Z,18.42
2023-05-14T18:02:11.700Z,18.23
2023-05-14T18:06:20.031Z,18.11
2023-05-14T18:10:33.452Z,18.00
2023-05-14T18:14:41.338Z,17.90
2023-05-14T18:18:47.357Z,17.80
2023-05-14T18:22:59.822Z,17.68
2023-05-14T18:27:08.798Z,17.60
2023-05-14T18:31:23.897Z,17.50
2023-05-14T18:35:28.575Z,17.37
2023-05-14T18:39:33.649Z,17.28
2023-05-14T18:43:38.959Z,17.17
2023-05-14T18:47:53.327Z,16.99
2023-05-14T18:52:01.888Z,16.79
2023-05-14T18:56:10.128Z,16.58
2023-05-14T19:00:19.694Z,16.35
2023-05-14T19:04:31.160Z,16.13
2023-05-14T19:08:42.480Z,15.92
2023-05-14T19:12:49.048Z,15.76
2023-05-14T19:16:52.649Z,15.67
2023-05-14T19:21:00.891Z,15.66
2023-05-14T19:25:05.150Z,15.64
2023-05-14T19:29:11.408Z,15.64
2023-05-14T19:33:29.020Z,15.60
2023-05-14T19:37:38.490Z,15.59
2023-05-14T19:41:46.162Z,15.54
2023-05-14T19:45:49.753Z,15.47
2023-05-14T19:50:01.288Z,15.41
2023-05-14T19:54:13.862Z,15.23
2023-05-14T19:58:25.513Z,15.07
2023-05-14T20:02:30.793Z,14.89
2023-05-14T20:06:39.095Z,14.74
2023-05-14T20:10:45.690Z,14.57
2023-05-14T20:14:53.279Z,14.43
2023-05-14T20:19:03.264Z,14.29
2023-05-14T20:23:16.277Z,14.14
2023-05-14T20:27:22.536Z,14.03
2023-05-14T20:31:35.129Z,13.90
2023-05-14T20:35:43.184Z,13.82
2023-05-14T20:39:52.147Z,13.72
2023-05-14T20:43:57.614Z,13.60
2023-05-14T20:48:03.446Z,13.49
2023-05-14T20:52:10.970Z,13.34
2023-05-14T20:56:17.565Z,13.21
2023-05-14T21:00:21.770Z,13.11
2023-05-14T21:04:28.858Z,13.04
2023-05-14T21:08:45.972Z,12.98
2023-05-14T21:12:54.606Z,12.92
2023-05-14T21:17:00.853Z,12.88
2023-05-14T21:21:12.828Z,12.84
2023-05-14T21:25:18.658Z,12.78
2023-05-14T21:29:22.255Z,12.74
2023-05-14T21:33:36.187Z,12.69
2023-05-14T21:37:42.927Z,12.60
2023-05-14T21:41:47.276Z,12.51
2023-05-14T21:46:01.181Z,12.42
2023-05-14T21:50:08.824Z,12.35
2023-05-14T21:54:21.672Z,12.26
2023-05-14T21:58:31.531Z,12.17
2023-05-14T22:02:38.252Z,12.09
2023-05-14T22:06:42.051Z,12.02
2023-05-14T22:10:51.401Z,11.95
2023-05-14T22:14:57.698Z,11.93
2023-05-14T22:19:05.354Z,11.91
2023-05-14T22:23:20.363Z,11.84
2023-05-14T22:27:30.847Z,11.76
2023-05-14T22:31:45.116Z,11.65
2023-05-14T22:35:57.561Z,11.60
2023-05-14T22:40:06.946Z,11.55
2023-05-14T22:44:10.648Z,11.49
2023-05-14T22:48:14.875Z,11.45
2023-05-14T22:52:27.042Z,11.44
2023-05-14T22:56:37.897Z,11.41
2023-05-14T23:00:45.773Z,11.40
2023-05-14T23:05:01.068Z,11.40
2023-05-14T23:09:10.589Z,11.39
2023-05-14T23:13:17.645Z,11.39
2023-05-14T23:17:24.769Z,11.38
2023-05-14T23:21:34.496Z,11.39
2023-05-14T23:25:38.509Z,11.38
2023-05-14T23:29:41.796Z,11.37
2023-05-14T23:33:48.392Z,11.40
2023-05-14T23:37:56.269Z,11.43
2023-05-14T23:42:15.445Z,11.44
2023-05-14T23:46:29.470Z,11.46
2023-05-14T23:50:36.778Z,11.48
2023-05-14T23:54:44.519Z,11.50
2023-05-14T23:58:50.821Z,11.51
